Aromas, CA

12:00 AM PST on December 08, 2016 (GMT -0800)
Aromas Heights | | Change Station

Elev 160 ft 36.89 °N, 121.65 °W | Updated 8 seconds ago

Rain
Rain
46.5 °F
Feels Like 46 °F
N
0.0
Wind Variable Wind from ENE
Gusts 0.0 mph

Today
High -- | Low -- °F
--% Chance of Precip.
Yesterday
High -- | Low -- °F
Precip. -- in
Pressure 30.12 in
Visibility 6.0 miles
Clouds Overcast 2500 ft
Windchill 46 °F
Dew Point 45 °F
Humidity 95%
Rainfall 0.08 in
Snow Depth Not available.
7:07 AM 4:49 PM
First Quarter, 61% visible
METAR KWVI 080753Z AUTO 00000KT 6SM -RA BR OVC025 08/08 A3012 RMK AO2 SLP199 P0004 T00830083 401220017
Pressure 30.12 in
Visibility 6.0 miles
Clouds Overcast 2500 ft
Windchill 46 °F
Dew Point 45 °F
Humidity 95%
Rainfall 0.08 in
Snow Depth Not available.
7:07 AM 4:49 PM
First Quarter, 61% visible
METAR KWVI 080753Z AUTO 00000KT 6SM -RA BR OVC025 08/08 A3012 RMK AO2 SLP199 P0004 T00830083 401220017

10-Day Weather Forecast

Almanac

Astronomy

Dec. 08, 2016 Rise Set
Actual Time
Civil Twilight
Nautical Twilight
Astronomical Twilight
Moon
Length of Visible Light
Length of Day
Tomorrow will be .
, % of the Moon is Illuminated

Today's Extremes

State Highs State Lows

Community

WunderPhotos

Upload Photos

1,956,259 photos uploaded!

WunderBlog® & News

Nearby

Air Quality

  Air Quality AQ Index Pollutant
Not available.

Snow Depth

Station Depth Elevation

Earthquake Activity

City Distance Mag. Time & Date
Minimum magnitude displayed is 2.5.

Coastal Water Temperatures

Place Temperature

Stations

Nearby Weather Stations

Station Location Temp. Windchill Dew Point Humidity Wind Precip. Elev Updated Type
                   

Watches & Warnings

There are currently no watches in effect.